Time;durP1;ratioP1;P1;durP2;ratioP2;P2;SDS_P1;SDS_P2;PMS_P1;PMS_P2;Temp;Humidity;BMP_temperature;BMP_pressure;BME280_temperature;BME280_humidity;BME280_pressure;Samples;Min_cycle;Max_cycle;Signal;HPM_P1;HPM_P2
2023/07/22 00:02:12;;;;;;;11.57;2.43;;;;;;;18.72;57.22;97389.38;5017572;28;20183;-72
2023/07/22 00:04:38;;;;;;;2.77;2.00;;;;;;;18.69;57.33;97396.94;5011694;28;20172;-73
2023/07/22 00:07:03;;;;;;;2.70;2.50;;;;;;;18.67;57.09;97389.19;5008039;28;20314;-72
2023/07/22 00:09:29;;;;;;;2.83;2.53;;;;;;;18.51;57.63;97392.19;5008663;28;20181;-71
2023/07/22 00:11:54;;;;;;;2.53;2.33;;;;;;;18.48;57.13;97398.72;5008563;28;20959;-72
2023/07/22 00:14:20;;;;;;;4.17;2.20;;;;;;;18.46;57.96;97399.94;5008301;28;20264;-73
2023/07/22 00:16:45;;;;;;;2.97;2.30;;;;;;;18.46;57.89;97406.06;5007189;28;20299;-73
2023/07/22 00:19:11;;;;;;;2.60;2.40;;;;;;;18.42;57.71;97402.16;5008255;28;20705;-72
2023/07/22 00:21:36;;;;;;;2.70;2.43;;;;;;;18.34;58.24;97395.19;5025152;28;20207;-73
2023/07/22 00:24:02;;;;;;;4.30;2.20;;;;;;;18.31;58.15;97400.06;5009332;28;20183;-74
2023/07/22 00:26:27;;;;;;;3.50;2.30;;;;;;;18.35;58.25;97407.44;5013220;28;20311;-73
2023/07/22 00:28:52;;;;;;;3.93;2.47;;;;;;;18.30;58.01;97399.25;5008567;28;20235;-72
2023/07/22 00:31:18;;;;;;;2.87;2.60;;;;;;;18.22;58.38;97394.94;5010209;28;20263;-72
2023/07/22 00:33:43;;;;;;;3.60;2.60;;;;;;;18.30;58.33;97403.72;5008563;28;20181;-71
2023/07/22 00:36:09;;;;;;;3.43;2.10;;;;;;;18.35;58.15;97401.31;5007761;28;20760;-73
2023/07/22 00:38:34;;;;;;;3.37;2.40;;;;;;;18.33;58.20;97406.00;5008616;28;20708;-71
2023/07/22 00:41:00;;;;;;;3.00;2.30;;;;;;;18.41;58.19;97405.81;5009573;28;20184;-72
2023/07/22 00:43:26;;;;;;;3.50;2.40;;;;;;;18.41;58.05;97405.81;5009050;28;20210;-71
2023/07/22 00:45:51;;;;;;;7.10;2.50;;;;;;;18.44;58.06;97402.78;5006748;28;20181;-71
2023/07/22 00:48:17;;;;;;;3.40;2.67;;;;;;;18.45;57.73;97400.97;5010647;28;20333;-72
2023/07/22 00:50:43;;;;;;;5.83;2.30;;;;;;;18.27;58.31;97403.09;5007188;28;20200;-71
2023/07/22 00:53:09;;;;;;;3.50;2.20;;;;;;;18.26;57.93;97398.84;5009191;28;20192;-72
2023/07/22 00:55:35;;;;;;;4.50;2.53;;;;;;;18.30;58.04;97404.56;5008389;28;20242;-73
2023/07/22 00:58:00;;;;;;;4.00;2.80;;;;;;;18.25;58.19;97397.19;5008551;28;20207;-72
2023/07/22 01:00:26;;;;;;;3.60;2.50;;;;;;;18.24;57.89;97400.88;5009294;28;21132;-72
2023/07/22 01:02:52;;;;;;;3.07;2.77;;;;;;;18.19;58.05;97387.38;5007826;28;20346;-72
2023/07/22 01:05:17;;;;;;;3.07;2.77;;;;;;;18.12;58.41;97397.13;5007410;28;20681;-72
2023/07/22 01:07:43;;;;;;;6.17;2.70;;;;;;;18.14;58.42;97384.50;5008209;28;20200;-73
2023/07/22 01:10:09;;;;;;;5.37;2.50;;;;;;;18.13;58.20;97389.97;5013014;28;20203;-74
2023/07/22 01:12:35;;;;;;;2.60;2.40;;;;;;;18.17;58.66;97392.03;5006522;28;20852;-70
2023/07/22 01:15:03;;;;;;;4.13;2.57;;;;;;;18.14;58.12;97384.50;5011862;28;20561;-71
2023/07/22 01:17:28;;;;;;;3.07;2.77;;;;;;;18.15;58.29;97380.81;5014782;28;20212;-71
2023/07/22 01:19:54;;;;;;;5.50;2.80;;;;;;;18.16;58.19;97382.44;5007980;28;20423;-71
2023/07/22 01:22:21;;;;;;;2.37;2.17;;;;;;;18.07;58.32;97371.19;5009381;28;20548;-70
2023/07/22 01:24:46;;;;;;;3.43;2.70;;;;;;;18.02;58.55;97375.47;5006428;28;20502;-72
2023/07/22 01:27:13;;;;;;;2.80;2.60;;;;;;;18.03;58.53;97377.06;5006323;28;20889;-72
2023/07/22 01:29:38;;;;;;;3.10;2.73;;;;;;;18.02;58.33;97378.09;5000729;28;20271;-72
2023/07/22 01:32:05;;;;;;;4.80;2.57;;;;;;;17.99;58.46;97383.78;5006126;28;20510;-72
2023/07/22 01:34:31;;;;;;;3.20;2.63;;;;;;;18.00;58.42;97372.97;5007593;28;20181;-72
2023/07/22 01:36:56;;;;;;;2.30;2.10;;;;;;;17.88;58.75;97364.75;5014424;28;20435;-72
2023/07/22 01:39:22;;;;;;;4.23;2.50;;;;;;;17.87;58.56;97367.56;5014514;28;20952;-71
2023/07/22 01:41:48;;;;;;;3.10;2.60;;;;;;;17.83;58.67;97367.16;5011683;28;20219;-71
2023/07/22 01:44:14;;;;;;;5.30;3.07;;;;;;;17.84;58.75;97363.50;5016250;28;20188;-71
2023/07/22 01:46:39;;;;;;;4.43;2.60;;;;;;;17.70;58.69;97367.06;5011122;28;20198;-70
2023/07/22 01:49:08;;;;;;;3.30;2.30;;;;;;;17.56;59.56;97366.97;5013105;28;20550;-72
2023/07/22 01:51:34;;;;;;;2.90;2.67;;;;;;;17.59;59.31;97373.72;5016680;28;20311;-71
2023/07/22 01:53:59;;;;;;;3.90;2.50;;;;;;;17.61;59.50;97369.88;5011206;28;20435;-71
2023/07/22 01:56:25;;;;;;;7.03;2.27;;;;;;;17.68;59.54;97369.91;5017893;28;20258;-72
2023/07/22 01:58:50;;;;;;;3.57;2.50;;;;;;;17.72;59.31;97367.69;5013620;28;20198;-72
2023/07/22 02:01:16;;;;;;;4.53;2.40;;;;;;;17.74;59.15;97368.31;5010442;28;20184;-71
2023/07/22 02:03:45;;;;;;;2.43;2.23;;;;;;;17.78;59.05;97365.09;5012845;28;20532;-73
2023/07/22 02:06:10;;;;;;;3.50;2.60;;;;;;;17.79;58.84;97368.53;5010581;28;20196;-71
2023/07/22 02:08:36;;;;;;;2.70;2.50;;;;;;;17.68;59.11;97369.91;5017601;28;20458;-72
2023/07/22 02:11:06;;;;;;;6.10;2.30;;;;;;;17.68;59.02;97369.91;5016486;28;20184;-72
2023/07/22 02:13:32;;;;;;;3.33;2.57;;;;;;;17.61;58.75;97367.22;5013370;28;20639;-72
2023/07/22 02:15:58;;;;;;;3.83;2.60;;;;;;;17.60;59.11;97368.22;5010389;28;20992;-70
2023/07/22 02:18:24;;;;;;;2.90;2.60;;;;;;;17.59;59.05;97371.91;5010726;28;21050;-72
2023/07/22 02:20:49;;;;;;;2.80;2.50;;;;;;;17.58;59.21;97378.19;5012291;28;21010;-72
2023/07/22 02:23:15;;;;;;;4.53;2.50;;;;;;;17.57;59.13;97379.22;5008968;28;20180;-71
2023/07/22 02:25:40;;;;;;;3.77;2.37;;;;;;;17.58;59.26;97385.34;5010448;28;20192;-71
2023/07/22 02:28:06;;;;;;;2.57;2.37;;;;;;;17.60;59.01;97391.25;5013853;28;20201;-70
2023/07/22 02:30:37;;;;;;;3.63;2.63;;;;;;;17.60;59.07;97386.78;5013914;28;20530;-71
2023/07/22 02:33:05;;;;;;;2.60;2.40;;;;;;;17.57;58.84;97386.34;5008130;28;20198;-74
2023/07/22 02:35:30;;;;;;;2.60;2.40;;;;;;;17.57;59.13;97381.84;5017998;28;20461;-72
2023/07/22 02:37:56;;;;;;;4.60;2.50;;;;;;;17.56;58.97;97377.56;5021106;28;20470;-71
2023/07/22 02:40:21;;;;;;;4.17;2.63;;;;;;;17.55;58.87;97389.19;5010472;28;20266;-72
2023/07/22 02:42:47;;;;;;;3.10;2.80;;;;;;;17.52;58.99;97397.50;5010326;28;20260;-72
2023/07/22 02:45:12;;;;;;;2.50;2.10;;;;;;;17.50;58.83;97387.09;5013117;28;20314;-72
2023/07/22 02:47:38;;;;;;;7.17;2.77;;;;;;;17.52;59.10;97376.31;5008893;28;20200;-73
2023/07/22 02:50:05;;;;;;;4.57;2.70;;;;;;;17.49;59.03;97382.81;5013810;28;20646;-70
2023/07/22 02:52:30;;;;;;;2.83;2.63;;;;;;;17.46;59.17;97385.03;5008208;28;20627;-72
2023/07/22 02:55:07;;;;;;;3.27;2.60;;;;;;;17.44;59.15;97387.06;5010488;28;20543;-72
2023/07/22 02:57:33;;;;;;;3.20;2.47;;;;;;;17.48;59.12;97390.97;5009779;28;20196;-71
2023/07/22 02:59:59;;;;;;;2.77;2.50;;;;;;;17.50;59.18;97378.34;5009806;28;20506;-71
2023/07/22 03:02:24;;;;;;;4.20;2.10;;;;;;;17.56;59.15;97384.72;5008290;28;21141;-72
2023/07/22 03:04:50;;;;;;;3.40;2.43;;;;;;;17.55;59.02;97370.63;5011105;28;20771;-71
2023/07/22 03:07:15;;;;;;;2.80;2.30;;;;;;;17.49;58.77;97376.72;4991467;28;20223;-71
2023/07/22 03:09:41;;;;;;;2.60;2.40;;;;;;;17.45;58.94;97375.44;5011788;28;20263;-73
2023/07/22 03:12:07;;;;;;;3.20;2.70;;;;;;;17.44;58.80;97373.81;5006925;28;20185;-72
2023/07/22 03:14:36;;;;;;;3.00;2.37;;;;;;;17.40;58.82;97372.53;5009382;28;20190;-72
2023/07/22 03:17:03;;;;;;;2.83;2.50;;;;;;;17.37;58.87;97373.75;5017240;28;20214;-71
2023/07/22 03:19:29;;;;;;;3.20;2.90;;;;;;;17.33;59.07;97373.31;5020607;28;20766;-73
2023/07/22 03:21:54;;;;;;;3.00;2.73;;;;;;;17.30;58.99;97370.25;5010964;28;20446;-71
2023/07/22 03:24:20;;;;;;;2.50;2.30;;;;;;;17.31;59.19;97369.25;5007775;28;20181;-71
2023/07/22 03:26:45;;;;;;;2.93;2.73;;;;;;;17.28;59.22;97370.41;5008064;28;20208;-73
2023/07/22 03:29:10;;;;;;;4.70;3.00;;;;;;;17.24;59.19;97371.00;5009199;28;20208;-71
2023/07/22 03:31:36;;;;;;;3.37;3.07;;;;;;;17.26;59.25;97372.47;5015186;28;20181;-72
2023/07/22 03:34:01;;;;;;;4.80;2.80;;;;;;;17.21;59.54;97369.56;5009046;28;20245;-73
2023/07/22 03:36:27;;;;;;;3.00;2.40;;;;;;;17.22;59.44;97368.56;5011893;28;20251;-72
2023/07/22 03:38:52;;;;;;;3.00;2.70;;;;;;;17.24;59.21;97376.28;5010457;28;20275;-72
2023/07/22 03:41:18;;;;;;;3.27;2.40;;;;;;;17.24;59.32;97376.28;5008619;28;20222;-73
2023/07/22 03:43:43;;;;;;;7.00;3.00;;;;;;;17.18;59.36;97369.94;4990932;28;20181;-71
2023/07/22 03:46:09;;;;;;;4.10;2.60;;;;;;;17.21;59.27;97380.16;5008793;28;20556;-72
2023/07/22 03:48:34;;;;;;;3.17;2.87;;;;;;;17.21;59.19;97374.84;5011117;28;20203;-73
2023/07/22 03:51:00;;;;;;;3.90;2.70;;;;;;;17.19;59.14;97374.22;5006143;28;20268;-72
2023/07/22 03:53:25;;;;;;;3.23;2.93;;;;;;;17.12;59.59;97376.81;5007288;28;20200;-71
2023/07/22 03:55:51;;;;;;;3.53;2.87;;;;;;;17.15;59.36;97367.66;5008878;28;20180;-71
2023/07/22 03:58:16;;;;;;;3.00;2.50;;;;;;;17.12;59.30;97368.88;5008728;28;20267;-71
2023/07/22 04:00:42;;;;;;;3.23;2.70;;;;;;;17.16;59.65;97371.94;5010679;28;20192;-71
2023/07/22 04:03:07;;;;;;;3.50;2.33;;;;;;;17.18;59.50;97380.53;5005735;28;20184;-70
2023/07/22 04:05:33;;;;;;;3.10;2.60;;;;;;;17.16;59.57;97375.44;5006976;28;20184;-71
2023/07/22 04:07:58;;;;;;;2.60;2.40;;;;;;;17.15;59.63;97368.50;5025932;28;20954;-70
2023/07/22 04:10:24;;;;;;;2.80;2.50;;;;;;;17.15;59.38;97370.31;5009208;28;20203;-71
2023/07/22 04:12:49;;;;;;;2.67;2.47;;;;;;;17.12;59.31;97371.50;5006508;28;20172;-71
2023/07/22 04:15:15;;;;;;;3.10;2.80;;;;;;;16.99;59.66;97369.59;5011934;28;20212;-71
2023/07/22 04:17:40;;;;;;;3.93;2.80;;;;;;;17.03;59.96;97372.66;5012790;28;20191;-70
2023/07/22 04:20:08;;;;;;;5.37;2.80;;;;;;;17.05;59.88;97375.94;5008340;28;20189;-71
2023/07/22 04:22:34;;;;;;;3.93;3.07;;;;;;;17.07;59.93;97368.63;5008606;28;20211;-72
2023/07/22 04:24:59;;;;;;;4.70;3.00;;;;;;;17.11;59.98;97371.72;5009496;28;20439;-71
2023/07/22 04:27:26;;;;;;;3.50;2.60;;;;;;;17.16;60.02;97366.66;5007128;28;20311;-70
2023/07/22 04:29:52;;;;;;;3.20;2.40;;;;;;;17.19;59.96;97372.41;5008551;28;20563;-70
2023/07/22 04:32:17;;;;;;;3.57;3.00;;;;;;;17.24;60.06;97369.19;5006908;28;20426;-71
2023/07/22 04:34:43;;;;;;;2.63;2.43;;;;;;;17.33;59.83;97365.38;5006268;28;20275;-71
2023/07/22 04:37:08;;;;;;;6.00;3.20;;;;;;;17.37;59.83;97371.09;5012209;28;20203;-71
2023/07/22 04:39:34;;;;;;;3.00;2.70;;;;;;;17.40;59.89;97367.25;5011706;28;20219;-71
2023/07/22 04:41:59;;;;;;;3.03;2.73;;;;;;;17.41;59.90;97367.06;5007994;28;20200;-72
2023/07/22 04:44:25;;;;;;;2.90;2.60;;;;;;;17.40;60.13;97369.91;5010713;28;20187;-73
2023/07/22 04:46:50;;;;;;;3.57;2.53;;;;;;;17.42;60.31;97365.22;5011764;28;20634;-72
2023/07/22 04:49:17;;;;;;;3.47;2.60;;;;;;;17.50;60.36;97370.41;5007558;28;20254;-71
2023/07/22 04:51:45;;;;;;;6.70;2.60;;;;;;;17.55;60.14;97373.28;5006220;28;20199;-71
2023/07/22 04:54:11;;;;;;;3.80;2.60;;;;;;;17.59;59.97;97371.91;5005506;28;20858;-72
2023/07/22 04:56:36;;;;;;;4.80;2.67;;;;;;;17.64;60.43;97371.31;5013275;28;20467;-71
2023/07/22 04:59:02;;;;;;;4.87;3.10;;;;;;;17.64;60.48;97374.75;5008015;28;20203;-72
2023/07/22 05:01:28;;;;;;;5.17;3.33;;;;;;;17.67;60.68;97378.88;5007037;28;20173;-71
2023/07/22 05:03:55;;;;;;;3.20;2.53;;;;;;;17.62;60.94;97371.50;5014973;28;20426;-72
2023/07/22 05:06:21;;;;;;;9.37;3.37;;;;;;;17.68;61.01;97374.38;5006136;28;20876;-71
2023/07/22 05:08:46;;;;;;;3.63;3.30;;;;;;;17.61;61.09;97375.19;5008272;28;20472;-71
2023/07/22 05:11:12;;;;;;;3.50;2.63;;;;;;;17.65;60.94;97376.41;5008958;28;20415;-70
2023/07/22 05:13:37;;;;;;;8.50;3.00;;;;;;;17.67;61.14;97373.56;5007243;28;20675;-71
2023/07/22 05:16:03;;;;;;;4.50;2.70;;;;;;;17.72;60.92;97387.06;5012738;28;20172;-72
2023/07/22 05:18:28;;;;;;;7.80;3.40;;;;;;;17.73;60.86;97386.03;5012214;28;20538;-71
2023/07/22 05:20:53;;;;;;;4.30;3.20;;;;;;;17.78;61.11;97386.28;5016099;28;20216;-72
2023/07/22 05:23:19;;;;;;;2.97;2.67;;;;;;;17.77;61.39;97392.59;5014414;28;20211;-72
2023/07/22 05:25:51;;;;;;;3.50;3.20;;;;;;;17.84;61.33;97383.84;5012732;28;20200;-73
2023/07/22 05:28:16;;;;;;;7.33;2.93;;;;;;;17.91;60.94;97387.38;5012423;28;20721;-71
2023/07/22 05:30:42;;;;;;;4.40;3.20;;;;;;;18.01;60.97;97379.94;5012695;28;20513;-72
2023/07/22 05:33:07;;;;;;;3.23;2.93;;;;;;;18.10;61.05;97380.59;5011257;28;20295;-73
2023/07/22 05:35:32;;;;;;;3.40;2.60;;;;;;;18.22;60.96;97383.50;5011195;28;20651;-72
2023/07/22 05:37:58;;;;;;;3.93;2.77;;;;;;;18.33;60.81;97377.66;5011764;28;20715;-71
2023/07/22 05:40:23;;;;;;;3.67;2.80;;;;;;;18.41;60.68;97385.44;5015212;28;20729;-72
2023/07/22 05:42:49;;;;;;;2.83;2.50;;;;;;;18.53;60.64;97388.31;5014215;28;20600;-71
2023/07/22 05:45:16;;;;;;;4.03;2.90;;;;;;;18.68;60.59;97390.00;5007813;28;20199;-71
2023/07/22 05:47:41;;;;;;;3.27;2.67;;;;;;;18.81;60.42;97382.06;5010368;28;20235;-71
2023/07/22 05:50:07;;;;;;;4.70;3.33;;;;;;;18.96;60.10;97384.59;5013188;28;20585;-71
2023/07/22 05:52:32;;;;;;;3.30;3.00;;;;;;;19.10;59.97;97393.41;5012246;28;20180;-71
2023/07/22 05:54:58;;;;;;;3.20;2.40;;;;;;;19.24;59.72;97388.91;5014812;28;20179;-71
2023/07/22 05:57:23;;;;;;;2.60;2.40;;;;;;;19.39;59.11;97396.69;5011365;28;20349;-70
2023/07/22 05:59:49;;;;;;;6.27;2.30;;;;;;;19.53;58.46;97402.00;5013063;28;20172;-72
2023/07/22 06:02:14;;;;;;;3.03;2.73;;;;;;;19.65;57.84;97403.84;5014193;28;20623;-71
2023/07/22 06:04:40;;;;;;;3.63;2.77;;;;;;;19.67;56.79;97405.47;5009098;28;20196;-71
2023/07/22 06:07:05;;;;;;;2.83;2.53;;;;;;;19.75;55.76;97399.94;5010898;28;20196;-71
2023/07/22 06:09:31;;;;;;;4.13;2.70;;;;;;;19.77;55.71;97406.69;5010729;28;20315;-72
2023/07/22 06:11:56;;;;;;;3.37;2.57;;;;;;;19.98;55.47;97412.81;5013567;28;20225;-70
2023/07/22 06:14:21;;;;;;;7.03;2.50;;;;;;;20.15;55.46;97420.38;5010929;28;20255;-72
2023/07/22 06:16:47;;;;;;;2.87;2.30;;;;;;;20.32;54.79;97418.06;5010474;28;20200;-72
2023/07/22 06:19:12;;;;;;;3.50;2.50;;;;;;;20.49;54.66;97416.56;5019610;28;20322;-71
2023/07/22 06:21:38;;;;;;;2.57;2.00;;;;;;;20.66;54.21;97416.09;5010198;28;20235;-73
2023/07/22 06:24:04;;;;;;;3.60;2.60;;;;;;;20.81;53.86;97416.66;5016908;28;20238;-74
2023/07/22 06:26:29;;;;;;;4.00;2.37;;;;;;;20.95;53.60;97425.38;5014071;28;20274;-72
2023/07/22 06:28:54;;;;;;;2.60;2.30;;;;;;;21.15;53.64;97416.47;5010096;28;20205;-72
2023/07/22 06:31:21;;;;;;;3.60;2.33;;;;;;;21.32;52.94;97414.09;5010218;28;20684;-71
2023/07/22 06:33:46;;;;;;;3.60;2.50;;;;;;;21.47;52.06;97416.44;5009681;28;20264;-72
2023/07/22 06:36:12;;;;;;;2.87;2.57;;;;;;;21.63;52.05;97420.44;5015445;28;20498;-73
2023/07/22 06:38:38;;;;;;;5.20;2.43;;;;;;;21.81;51.81;97426.84;5010041;28;20207;-71
2023/07/22 06:41:03;;;;;;;4.23;2.67;;;;;;;21.98;51.69;97419.94;5014051;28;20330;-71
2023/07/22 06:43:28;;;;;;;3.73;2.63;;;;;;;22.15;51.18;97424.66;5010015;28;20211;-73
2023/07/22 06:45:54;;;;;;;3.40;2.40;;;;;;;22.31;50.69;97420.59;5009086;28;20184;-70
2023/07/22 06:48:19;;;;;;;4.90;2.13;;;;;;;22.46;50.01;97418.38;5008437;28;20279;-72
2023/07/22 06:50:48;;;;;;;2.77;2.40;;;;;;;22.65;49.53;97423.72;5014434;28;20232;-71
2023/07/22 06:53:14;;;;;;;3.40;2.43;;;;;;;22.80;48.92;97424.16;5018353;28;20233;-71
2023/07/22 06:55:40;;;;;;;5.07;2.80;;;;;;;22.88;46.64;97416.84;5013935;28;20912;-71
2023/07/22 06:58:05;;;;;;;2.80;2.30;;;;;;;22.98;46.00;97423.28;5010951;28;20439;-71
2023/07/22 07:00:31;;;;;;;2.50;1.87;;;;;;;23.11;45.48;97416.13;5016162;28;20610;-70
2023/07/22 07:02:56;;;;;;;2.60;2.40;;;;;;;23.25;45.77;97430.13;5008931;28;20177;-71
2023/07/22 07:05:22;;;;;;;2.10;1.90;;;;;;;23.41;45.48;97418.78;5011772;28;20176;-71
2023/07/22 07:07:49;;;;;;;4.27;2.30;;;;;;;23.55;44.90;97423.91;5017629;28;20303;-72
2023/07/22 07:10:14;;;;;;;3.03;1.93;;;;;;;23.62;43.79;97421.94;5010605;28;20191;-71
2023/07/22 07:12:39;;;;;;;2.60;2.07;;;;;;;23.73;43.75;97426.47;5011827;28;20450;-72
2023/07/22 07:15:05;;;;;;;4.50;1.80;;;;;;;23.77;42.68;97422.31;5009654;28;20271;-71
2023/07/22 07:17:31;;;;;;;3.67;2.17;;;;;;;23.91;42.49;97416.72;5006999;28;20192;-71
2023/07/22 07:19:56;;;;;;;3.83;2.20;;;;;;;24.05;42.54;97420.81;5009249;28;20191;-72
2023/07/22 07:22:22;;;;;;;2.40;2.20;;;;;;;24.20;42.70;97416.81;5015036;28;23025;-71
2023/07/22 07:24:47;;;;;;;3.93;2.00;;;;;;;24.31;41.45;97420.53;5009127;28;20222;-71
2023/07/22 07:27:13;;;;;;;3.30;1.87;;;;;;;24.37;41.67;97427.66;5011573;28;20295;-71
2023/07/22 07:29:38;;;;;;;2.70;2.10;;;;;;;24.34;41.46;97420.88;5009449;28;20223;-74
2023/07/22 07:32:04;;;;;;;4.07;2.27;;;;;;;24.46;40.59;97428.06;5010692;28;20697;-71
2023/07/22 07:34:30;;;;;;;2.20;2.00;;;;;;;24.57;39.62;97439.81;5008209;28;20192;-71
2023/07/22 07:36:55;;;;;;;2.67;1.83;;;;;;;24.47;39.13;97430.53;5012551;28;20447;-72
2023/07/22 07:39:21;;;;;;;1.93;1.73;;;;;;;24.63;39.06;97431.63;5009401;28;20203;-73
2023/07/22 07:41:46;;;;;;;3.67;1.83;;;;;;;24.80;39.36;97428.25;5011663;28;20180;-71
2023/07/22 07:44:12;;;;;;;3.27;1.97;;;;;;;24.96;39.15;97427.47;5009128;28;20192;-71
2023/07/22 07:46:37;;;;;;;2.13;1.93;;;;;;;24.82;38.86;97431.50;5008589;28;20210;-73
2023/07/22 07:49:03;;;;;;;2.50;1.83;;;;;;;25.04;39.01;97425.47;5008827;28;20192;-72
2023/07/22 07:51:30;;;;;;;2.70;1.70;;;;;;;25.25;39.06;97438.16;5009679;28;20287;-71
2023/07/22 07:53:56;;;;;;;3.83;1.83;;;;;;;25.28;38.32;97432.34;5015730;28;20192;-73
2023/07/22 07:56:22;;;;;;;3.67;1.70;;;;;;;25.47;38.25;97434.00;5010992;28;21010;-72
2023/07/22 07:58:50;;;;;;;7.33;1.63;;;;;;;25.60;37.30;97426.44;5008489;28;20416;-71
2023/07/22 08:01:16;;;;;;;2.80;1.90;;;;;;;25.72;36.98;97417.47;5008550;28;20187;-71
2023/07/22 08:03:42;;;;;;;2.33;1.93;;;;;;;25.80;36.86;97432.34;5008295;28;20434;-72
2023/07/22 08:06:08;;;;;;;3.07;1.70;;;;;;;25.86;36.29;97423.34;5008724;28;20427;-72
2023/07/22 08:08:34;;;;;;;6.63;2.40;;;;;;;25.80;36.17;97430.50;5009435;28;20462;-70
2023/07/22 08:11:05;;;;;;;2.90;1.90;;;;;;;25.73;36.19;97425.31;5019089;28;20415;-71
2023/07/22 08:13:33;;;;;;;3.20;1.80;;;;;;;25.97;35.94;97425.09;5011328;28;20587;-70
2023/07/22 08:15:59;;;;;;;2.27;1.87;;;;;;;26.11;35.51;97430.16;5008041;28;20427;-73
2023/07/22 08:18:24;;;;;;;2.53;1.70;;;;;;;26.12;35.22;97421.03;5008772;28;20932;-71
2023/07/22 08:20:54;;;;;;;3.93;1.80;;;;;;;26.29;35.13;97427.16;5008170;28;20180;-71
2023/07/22 08:23:20;;;;;;;3.87;2.13;;;;;;;26.36;34.84;97421.63;5011730;28;20204;-72
2023/07/22 08:25:45;;;;;;;2.67;1.50;;;;;;;26.54;34.98;97423.16;5011760;28;20471;-71
2023/07/22 08:28:11;;;;;;;1.73;1.50;;;;;;;26.63;34.40;97420.88;5011271;28;20212;-73
2023/07/22 08:30:37;;;;;;;2.90;1.80;;;;;;;26.56;33.62;97413.00;5007410;28;20180;-72
2023/07/22 08:33:02;;;;;;;2.57;1.87;;;;;;;26.45;35.05;97412.06;5008239;28;20279;-71
2023/07/22 08:35:28;;;;;;;3.10;1.90;;;;;;;26.78;34.69;97415.69;5007326;28;20271;-72
2023/07/22 08:37:53;;;;;;;3.80;1.43;;;;;;;27.04;34.04;97405.19;5007843;28;20616;-71
2023/07/22 08:40:20;;;;;;;11.03;2.13;;;;;;;27.22;33.48;97400.53;5012410;28;20200;-72
2023/07/22 08:42:46;;;;;;;2.87;1.90;;;;;;;27.47;32.76;97407.22;5009854;28;20600;-72
2023/07/22 08:45:11;;;;;;;2.07;1.87;;;;;;;27.67;32.43;97404.69;5007907;28;20424;-72
2023/07/22 08:47:47;;;;;;;2.60;1.60;;;;;;;27.90;32.11;97399.97;5014298;28;20459;-73
2023/07/22 08:50:17;;;;;;;4.17;1.50;;;;;;;27.83;29.72;97405.59;5008388;28;20180;-72
2023/07/22 08:52:44;;;;;;;1.67;1.57;;;;;;;27.93;29.61;97404.84;5013325;28;20418;-72
2023/07/22 08:55:10;;;;;;;1.50;1.40;;;;;;;28.02;29.32;97403.28;5007072;28;20528;-71
2023/07/22 08:57:36;;;;;;;1.70;1.60;;;;;;;28.15;29.07;97401.22;5018237;28;20442;-71
2023/07/22 09:00:04;;;;;;;2.40;1.47;;;;;;;28.14;28.66;97403.09;5013072;28;21189;-71
2023/07/22 09:02:29;;;;;;;2.80;1.70;;;;;;;28.15;28.45;97395.81;5011763;28;20183;-71
2023/07/22 09:04:55;;;;;;;1.60;1.50;;;;;;;27.95;28.40;97412.66;5014169;28;20424;-72
2023/07/22 09:07:21;;;;;;;2.83;1.60;;;;;;;27.61;28.43;97397.63;5018800;28;20231;-72
2023/07/22 09:09:47;;;;;;;7.13;1.97;;;;;;;27.40;28.84;97400.13;5016237;28;20427;-71
2023/07/22 09:12:14;;;;;;;2.30;1.53;;;;;;;27.33;28.78;97410.31;5013515;28;20872;-72
2023/07/22 09:14:40;;;;;;;1.40;1.30;;;;;;;27.20;29.82;97408.84;5013217;28;20207;-72
2023/07/22 09:17:05;;;;;;;3.93;1.60;;;;;;;27.09;29.81;97407.91;5013511;28;20488;-71
2023/07/22 09:19:31;;;;;;;4.13;1.33;;;;;;;27.01;30.62;97410.28;5014984;28;20272;-71
2023/07/22 09:21:58;;;;;;;3.00;1.70;;;;;;;26.94;30.33;97408.59;5015525;28;20250;-71
2023/07/22 09:24:25;;;;;;;2.13;1.60;;;;;;;26.83;30.39;97410.38;5020049;28;20188;-71
2023/07/22 09:26:51;;;;;;;1.70;1.37;;;;;;;26.75;30.19;97415.38;5015138;28;20968;-71
2023/07/22 09:29:17;;;;;;;3.20;1.53;;;;;;;26.64;30.13;97407.19;5014507;28;20486;-70
2023/07/22 09:31:52;;;;;;;2.00;1.70;;;;;;;26.56;30.27;97417.56;5014717;28;20181;-73
2023/07/22 09:34:17;;;;;;;3.00;1.70;;;;;;;26.52;30.94;97415.38;5013666;28;20206;-71
2023/07/22 09:36:51;;;;;;;3.00;1.80;;;;;;;26.75;30.67;97405.41;5014435;28;20963;-72
2023/07/22 09:39:16;;;;;;;2.47;1.80;;;;;;;26.91;31.03;97410.97;5012315;28;20226;-72
2023/07/22 09:41:42;;;;;;;1.80;1.70;;;;;;;27.16;30.65;97404.22;5014732;28;20431;-71
2023/07/22 09:44:10;;;;;;;2.20;1.90;;;;;;;27.39;30.30;97403.09;5013967;28;20188;-71
2023/07/22 09:46:35;;;;;;;2.90;1.30;;;;;;;27.59;29.92;97395.19;5014248;28;20204;-71
2023/07/22 09:49:05;;;;;;;2.13;1.30;;;;;;;27.92;29.75;97397.84;4996158;28;21039;-73
2023/07/22 09:51:35;;;;;;;2.13;1.40;;;;;;;27.99;29.06;97398.41;5017925;28;20187;-71
2023/07/22 09:54:02;;;;;;;1.83;1.57;;;;;;;28.11;29.61;97395.53;5010730;28;20769;-73
2023/07/22 09:56:28;;;;;;;2.17;1.50;;;;;;;28.15;29.04;97393.13;5015092;28;20925;-72
2023/07/22 09:58:54;;;;;;;2.90;1.43;;;;;;;28.20;28.56;97395.88;5013484;28;20459;-72
2023/07/22 10:01:24;;;;;;;3.60;1.87;;;;;;;28.24;28.56;97396.94;5016530;28;20184;-71
2023/07/22 10:03:54;;;;;;;3.20;1.43;;;;;;;28.35;28.44;97385.13;5008973;28;20447;-71
2023/07/22 10:06:21;;;;;;;3.77;1.60;;;;;;;28.49;27.75;97395.41;5010354;28;20515;-73
2023/07/22 10:08:47;;;;;;;1.90;1.70;;;;;;;28.56;28.13;97400.56;5011017;28;20481;-71
2023/07/22 10:11:14;;;;;;;1.37;1.27;;;;;;;28.43;25.66;97391.09;5010547;28;20458;-71
2023/07/22 10:13:39;;;;;;;2.40;1.67;;;;;;;28.35;25.77;97393.22;5010916;28;20507;-71
2023/07/22 10:16:05;;;;;;;2.47;1.70;;;;;;;28.30;26.15;97384.28;5010489;28;20442;-71
2023/07/22 10:18:32;;;;;;;2.17;1.20;;;;;;;27.95;26.22;97388.41;5010946;28;20192;-71
2023/07/22 10:20:58;;;;;;;1.47;1.37;;;;;;;27.70;27.54;97396.09;5007624;28;20177;-71
2023/07/22 10:23:25;;;;;;;2.50;1.40;;;;;;;27.77;27.93;97395.88;5010608;28;20470;-72
2023/07/22 10:25:52;;;;;;;1.40;1.30;;;;;;;27.75;27.83;97390.72;5016260;28;20442;-72
2023/07/22 10:28:19;;;;;;;3.60;1.67;;;;;;;27.95;28.10;97399.19;5008959;28;20455;-71
2023/07/22 10:30:45;;;;;;;2.27;1.50;;;;;;;28.05;28.05;97389.28;5012287;28;20423;-72
2023/07/22 10:33:11;;;;;;;1.53;1.30;;;;;;;28.08;27.89;97384.47;5010648;28;21074;-70
2023/07/22 10:35:44;;;;;;;1.40;1.30;;;;;;;28.41;27.82;97380.59;5009269;28;20191;-70
2023/07/22 10:38:16;;;;;;;1.90;1.40;;;;;;;28.72;27.67;97379.88;5012090;28;20200;-72
2023/07/22 10:40:52;;;;;;;3.10;1.70;;;;;;;28.95;27.06;97390.19;5018376;28;20568;-71
2023/07/22 10:43:24;;;;;;;3.20;1.83;;;;;;;29.19;26.29;97384.28;5028633;28;20427;-70
2023/07/22 10:45:51;;;;;;;1.93;1.20;;;;;;;29.41;26.11;97381.34;5008796;28;20423;-71
2023/07/22 10:48:17;;;;;;;2.10;1.90;;;;;;;29.41;26.80;97378.66;5006946;28;20471;-71
2023/07/22 10:50:53;;;;;;;2.30;1.30;;;;;;;29.62;26.95;97375.09;5009473;28;20567;-71
2023/07/22 10:53:24;;;;;;;1.70;1.43;;;;;;;29.87;26.31;97358.84;5015254;28;20482;-71
2023/07/22 10:56:03;;;;;;;3.30;1.33;;;;;;;30.25;25.66;97366.59;5015531;28;20432;-72
2023/07/22 10:58:44;;;;;;;1.93;1.80;;;;;;;30.38;25.19;97357.06;5011543;28;20504;-71
2023/07/22 11:01:25;;;;;;;2.13;1.70;;;;;;;30.70;25.50;97355.84;5009894;28;20430;-71
2023/07/22 11:04:06;;;;;;;3.93;1.93;;;;;;;31.02;24.16;97359.94;5008216;28;20489;-71
2023/07/22 11:06:31;;;;;;;7.83;2.10;;;;;;;31.13;23.81;97359.94;5007758;28;20472;-71
2023/07/22 11:08:57;;;;;;;2.80;1.97;;;;;;;30.98;24.29;97363.50;5013752;28;20459;-72
2023/07/22 11:11:39;;;;;;;2.30;1.57;;;;;;;30.69;24.14;97359.63;5017978;28;20184;-71
2023/07/22 11:14:21;;;;;;;2.83;1.77;;;;;;;30.07;24.81;97361.78;5008638;28;20195;-72
2023/07/22 11:16:47;;;;;;;10.17;1.93;;;;;;;29.87;25.41;97366.16;5009417;28;20517;-72
2023/07/22 11:19:14;;;;;;;2.20;1.33;;;;;;;29.60;26.30;97367.28;5008728;28;20815;-71
2023/07/22 11:21:40;;;;;;;2.70;1.57;;;;;;;29.36;26.55;97364.34;5009855;28;20262;-72
2023/07/22 11:24:06;;;;;;;2.00;1.80;;;;;;;29.20;27.06;97361.63;5012244;28;21048;-72
2023/07/22 11:26:32;;;;;;;2.30;1.70;;;;;;;29.35;27.59;97355.44;5016070;28;20223;-71
2023/07/22 11:28:59;;;;;;;3.17;2.10;;;;;;;29.48;27.61;97351.38;5020911;28;20454;-71
2023/07/22 11:31:36;;;;;;;2.60;1.70;;;;;;;29.78;27.28;97348.91;5009307;28;20177;-70